createdAt,value
2018-01-26T00:00:55.789Z,10.63
2018-01-26T00:03:24.181Z,10.25
2018-01-26T00:05:52.593Z,11.95
2018-01-26T00:08:21.885Z,10.57
2018-01-26T00:10:50.418Z,10.95
2018-01-26T00:13:19.001Z,9.82
2018-01-26T00:15:47.421Z,9.35
2018-01-26T00:18:15.859Z,9.75
2018-01-26T00:20:44.256Z,10.60
2018-01-26T00:23:13.044Z,12.07
2018-01-26T00:25:41.605Z,9.73
2018-01-26T00:28:10.115Z,11.27
2018-01-26T00:30:38.537Z,10.95
2018-01-26T00:33:06.915Z,14.68
2018-01-26T00:35:35.302Z,12.02
2018-01-26T00:38:03.668Z,11.55
2018-01-26T00:40:33.025Z,9.80
2018-01-26T00:43:01.376Z,9.45
2018-01-26T00:45:29.740Z,11.05
2018-01-26T00:47:58.128Z,10.93
2018-01-26T00:50:26.493Z,10.82
2018-01-26T00:52:54.873Z,8.60
2018-01-26T00:55:23.241Z,8.70
2018-01-26T00:57:51.728Z,8.95
2018-01-26T01:00:20.088Z,8.60
2018-01-26T01:02:49.233Z,9.05
2018-01-26T01:05:17.632Z,9.95
2018-01-26T01:07:46.250Z,9.35
2018-01-26T01:10:15.412Z,8.73
2018-01-26T01:12:43.776Z,9.55
2018-01-26T01:15:12.470Z,8.45
2018-01-26T01:17:40.861Z,8.38
2018-01-26T01:20:10.032Z,8.85
2018-01-26T01:22:38.417Z,9.25
2018-01-26T01:25:06.885Z,9.25
2018-01-26T01:27:36.232Z,8.85
2018-01-26T01:30:04.913Z,9.20
2018-01-26T01:32:33.611Z,9.30
2018-01-26T01:35:02.782Z,11.55
2018-01-26T01:37:32.793Z,11.27
2018-01-26T01:40:01.185Z,12.15
2018-01-26T01:42:29.658Z,10.98
2018-01-26T01:44:58.047Z,9.70
2018-01-26T01:47:26.529Z,9.73
2018-01-26T01:49:54.911Z,9.93
2018-01-26T01:52:23.368Z,8.65
2018-01-26T01:54:51.917Z,10.05
2018-01-26T01:57:20.272Z,9.02
2018-01-26T01:59:49.392Z,9.60
2018-01-26T02:02:17.773Z,10.75
2018-01-26T02:04:46.161Z,10.02
2018-01-26T02:07:14.540Z,10.00
2018-01-26T02:09:42.909Z,10.63
2018-01-26T02:12:11.262Z,9.82
2018-01-26T02:14:40.408Z,8.93
2018-01-26T02:17:08.813Z,9.38
2018-01-26T02:19:37.961Z,9.13
2018-01-26T02:22:06.319Z,9.02
2018-01-26T02:24:34.722Z,9.85
2018-01-26T02:27:03.128Z,10.60
2018-01-26T02:29:31.484Z,9.13
2018-01-26T02:31:59.868Z,10.07
2018-01-26T02:34:29.328Z,9.52
2018-01-26T02:36:57.724Z,9.80
2018-01-26T02:39:26.766Z,10.00
2018-01-26T02:41:55.763Z,9.05
2018-01-26T02:44:24.128Z,10.98
2018-01-26T02:46:52.489Z,9.45
2018-01-26T02:49:20.864Z,8.52
2018-01-26T02:51:49.224Z,8.43
2018-01-26T02:54:17.608Z,8.85
2018-01-26T02:56:45.985Z,7.78
2018-01-26T02:59:14.565Z,7.70
2018-01-26T03:01:42.937Z,8.52
2018-01-26T03:04:11.545Z,9.05
2018-01-26T03:06:39.921Z,8.45
2018-01-26T03:09:08.710Z,8.45
2018-01-26T03:11:37.621Z,9.65
2018-01-26T03:14:05.981Z,8.50
2018-01-26T03:16:35.611Z,9.40
2018-01-26T03:19:03.997Z,10.95
2018-01-26T03:21:32.604Z,9.05
2018-01-26T03:24:02.490Z,9.50
2018-01-26T03:26:31.629Z,9.18
2018-01-26T03:29:00.755Z,8.45
2018-01-26T03:31:29.628Z,8.13
2018-01-26T03:33:58.624Z,7.72
2018-01-26T03:36:27.447Z,8.63
2018-01-26T03:38:56.964Z,8.55
2018-01-26T03:41:25.854Z,8.48
2018-01-26T03:43:54.734Z,8.65
2018-01-26T03:46:23.543Z,8.43
2018-01-26T03:48:51.902Z,8.75
2018-01-26T03:51:20.547Z,8.60
2018-01-26T03:53:48.900Z,8.75
2018-01-26T03:56:18.024Z,9.13
2018-01-26T03:58:46.410Z,8.70
2018-01-26T04:01:14.780Z,8.30
2018-01-26T04:03:43.168Z,9.40
2018-01-26T04:06:11.537Z,8.77
2018-01-26T04:08:39.965Z,11.68
2018-01-26T04:11:08.334Z,11.10
2018-01-26T04:13:36.700Z,9.20
2018-01-26T04:16:05.099Z,8.60
2018-01-26T04:18:33.488Z,7.85
2018-01-26T04:21:01.888Z,7.70
2018-01-26T04:23:30.255Z,7.22
2018-01-26T04:25:59.584Z,8.43
2018-01-26T04:28:27.945Z,7.80
2018-01-26T04:30:56.313Z,8.05
2018-01-26T04:33:25.468Z,7.25
2018-01-26T04:35:53.845Z,7.50
2018-01-26T04:38:22.229Z,6.82
2018-01-26T04:40:50.593Z,6.47
2018-01-26T04:43:19.357Z,7.35
2018-01-26T04:45:47.753Z,8.55
2018-01-26T04:48:16.120Z,7.50
2018-01-26T04:50:44.506Z,7.50
2018-01-26T04:53:12.864Z,7.00
2018-01-26T04:55:41.264Z,8.35
2018-01-26T04:58:09.620Z,6.15
2018-01-26T05:00:38.023Z,6.62
2018-01-26T05:03:06.385Z,6.20
2018-01-26T05:05:34.741Z,6.78
2018-01-26T05:08:03.116Z,7.05
2018-01-26T05:10:31.509Z,6.20
2018-01-26T05:12:59.892Z,6.85
2018-01-26T05:15:28.262Z,7.65
2018-01-26T05:17:56.768Z,7.28
2018-01-26T05:20:25.133Z,7.68
2018-01-26T05:22:53.493Z,6.70
2018-01-26T05:25:21.868Z,5.78
2018-01-26T05:27:50.998Z,6.82
2018-01-26T05:30:19.377Z,6.65
2018-01-26T05:32:47.740Z,7.28
2018-01-26T05:35:16.439Z,7.30
2018-01-26T05:37:44.799Z,5.72
2018-01-26T05:40:13.165Z,6.97
2018-01-26T05:42:41.552Z,7.68
2018-01-26T05:45:09.933Z,6.60
2018-01-26T05:47:38.321Z,6.47
2018-01-26T05:50:06.710Z,6.05
2018-01-26T05:52:35.487Z,6.47
2018-01-26T05:55:03.848Z,6.62
2018-01-26T05:57:32.210Z,7.37
2018-01-26T06:00:01.353Z,6.43
2018-01-26T06:02:29.705Z,7.15
2018-01-26T06:04:58.087Z,8.05
2018-01-26T06:07:26.458Z,10.82
2018-01-26T06:09:55.274Z,10.07
2018-01-26T06:12:23.630Z,10.27
2018-01-26T06:14:52.024Z,13.73
2018-01-26T06:17:20.420Z,14.00
2018-01-26T06:19:48.817Z,13.32
2018-01-26T06:22:17.213Z,12.25
2018-01-26T06:24:45.585Z,14.02
2018-01-26T06:27:14.023Z,11.82
2018-01-26T06:29:48.808Z,11.32
2018-01-26T06:32:17.993Z,13.40
2018-01-26T06:34:46.400Z,13.57
2018-01-26T06:37:14.763Z,15.93
2018-01-26T06:39:43.930Z,14.80
2018-01-26T06:42:12.294Z,14.48
2018-01-26T06:44:40.734Z,14.07
2018-01-26T06:47:09.098Z,15.80
2018-01-26T06:49:38.424Z,16.20
2018-01-26T06:52:06.787Z,14.93
2018-01-26T06:54:35.193Z,14.73
2018-01-26T06:57:03.565Z,14.57
2018-01-26T06:59:31.933Z,15.98
2018-01-26T07:02:00.322Z,15.70
2018-01-26T07:04:28.717Z,15.27
2018-01-26T07:06:57.121Z,15.98
2018-01-26T07:09:25.500Z,13.70
2018-01-26T07:11:53.869Z,16.40
2018-01-26T07:14:22.257Z,15.80
2018-01-26T07:16:50.637Z,16.00
2018-01-26T07:19:19.035Z,14.02
2018-01-26T07:21:47.421Z,16.27
2018-01-26T07:24:17.058Z,17.58
2018-01-26T07:26:45.426Z,14.50
2018-01-26T07:29:13.793Z,26.70
2018-01-26T07:31:42.176Z,15.00
2018-01-26T07:34:10.537Z,15.80
2018-01-26T07:36:39.695Z,14.18
2018-01-26T07:39:08.098Z,14.20
2018-01-26T07:41:36.505Z,14.50
2018-01-26T07:44:04.868Z,14.60
2018-01-26T07:46:34.018Z,15.20
2018-01-26T07:49:02.404Z,14.10
2018-01-26T07:51:30.766Z,13.27
2018-01-26T07:53:59.877Z,13.48
2018-01-26T07:56:28.240Z,14.10
2018-01-26T07:58:57.018Z,13.32
2018-01-26T08:01:25.378Z,14.93
2018-01-26T08:03:53.749Z,14.45
2018-01-26T08:06:22.138Z,13.30
2018-01-26T08:08:50.513Z,15.25
2018-01-26T08:11:18.917Z,15.52
2018-01-26T08:13:47.274Z,16.37
2018-01-26T08:16:15.901Z,14.30
2018-01-26T08:18:44.269Z,13.32
2018-01-26T08:21:12.666Z,14.57
2018-01-26T08:23:41.103Z,14.38
2018-01-26T08:26:10.293Z,16.83
2018-01-26T08:28:38.682Z,15.05
2018-01-26T08:31:07.054Z,14.80
2018-01-26T08:33:35.481Z,14.70
2018-01-26T08:36:03.844Z,15.45
2018-01-26T08:38:32.211Z,15.23
2018-01-26T08:41:00.643Z,15.38
2018-01-26T08:43:29.781Z,16.98
2018-01-26T08:45:58.189Z,17.30
2018-01-26T08:48:26.554Z,21.42
2018-01-26T08:50:54.961Z,18.12
2018-01-26T08:53:23.329Z,18.67
2018-01-26T08:55:51.710Z,17.98
2018-01-26T08:58:20.102Z,17.85
2018-01-26T09:00:49.233Z,15.75
2018-01-26T09:03:17.622Z,16.05
2018-01-26T09:05:45.988Z,16.77
2018-01-26T09:08:14.615Z,17.42
2018-01-26T09:10:42.976Z,17.40
2018-01-26T09:13:11.354Z,15.25
2018-01-26T09:15:39.750Z,16.60
2018-01-26T09:18:08.140Z,16.50
2018-01-26T09:20:36.532Z,19.02
2018-01-26T09:23:05.671Z,16.37
2018-01-26T09:25:34.050Z,19.10
2018-01-26T09:28:02.601Z,16.75
2018-01-26T09:30:31.744Z,16.23
2018-01-26T09:33:00.149Z,15.02
2018-01-26T09:35:28.529Z,16.80
2018-01-26T09:37:56.941Z,15.70
2018-01-26T09:40:25.332Z,16.40
2018-01-26T09:42:53.706Z,16.55
2018-01-26T09:45:22.110Z,17.95
2018-01-26T09:47:50.501Z,26.70
2018-01-26T09:50:18.891Z,19.90
2018-01-26T09:52:48.057Z,16.10
2018-01-26T09:55:16.642Z,16.95
2018-01-26T09:57:45.025Z,16.25
2018-01-26T10:00:13.407Z,15.75
2018-01-26T10:02:41.828Z,15.90
2018-01-26T10:05:10.997Z,15.07
2018-01-26T10:07:39.418Z,17.25
2018-01-26T10:10:07.797Z,15.18
2018-01-26T10:12:36.242Z,16.50
2018-01-26T10:15:04.629Z,18.50
2018-01-26T10:17:33.010Z,18.62
2018-01-26T10:20:01.405Z,18.77
2018-01-26T10:22:30.585Z,20.20
2018-01-26T10:24:59.013Z,19.77
2018-01-26T10:27:27.403Z,18.52
2018-01-26T10:29:55.886Z,19.25
2018-01-26T10:32:24.274Z,21.70
2018-01-26T10:34:52.674Z,19.20
2018-01-26T10:37:21.318Z,18.58
2018-01-26T10:39:49.706Z,17.70
2018-01-26T10:42:18.081Z,18.60
2018-01-26T10:44:46.476Z,19.67
2018-01-26T10:47:14.881Z,20.30
2018-01-26T10:49:43.361Z,19.92
2018-01-26T10:52:13.240Z,21.87
2018-01-26T10:54:41.614Z,20.02
2018-01-26T10:57:10.024Z,23.60
2018-01-26T10:59:38.397Z,19.37
2018-01-26T11:02:07.054Z,19.80
2018-01-26T11:04:36.402Z,18.45
2018-01-26T11:07:05.547Z,20.50
2018-01-26T11:09:33.949Z,19.90
2018-01-26T11:12:02.329Z,19.50
2018-01-26T11:14:30.890Z,18.43
2018-01-26T11:16:59.262Z,18.53
2018-01-26T11:19:27.660Z,19.90
2018-01-26T11:21:56.053Z,17.53
2018-01-26T11:24:24.425Z,17.87
2018-01-26T11:26:52.986Z,24.80
2018-01-26T11:29:21.360Z,17.90
2018-01-26T11:31:49.734Z,15.40
2018-01-26T11:34:18.135Z,14.93
2018-01-26T11:36:46.541Z,15.50
2018-01-26T11:39:16.109Z,16.10
2018-01-26T11:41:44.488Z,15.43
2018-01-26T11:44:12.868Z,16.37
2018-01-26T11:46:41.269Z,14.80
2018-01-26T11:49:09.666Z,15.50
2018-01-26T11:51:38.102Z,16.03
2018-01-26T11:54:06.480Z,15.77
2018-01-26T11:56:34.854Z,17.23
2018-01-26T11:59:03.262Z,18.63
2018-01-26T12:01:31.645Z,16.97
2018-01-26T12:04:00.150Z,13.60
2018-01-26T12:06:29.296Z,14.13
2018-01-26T12:08:57.708Z,16.10
2018-01-26T12:11:26.082Z,14.00
2018-01-26T12:13:54.458Z,15.73
2018-01-26T12:16:22.869Z,14.50
2018-01-26T12:18:52.025Z,14.97
2018-01-26T12:21:20.437Z,16.47
2018-01-26T12:23:49.574Z,15.50
2018-01-26T12:26:17.948Z,20.30
2018-01-26T12:28:46.351Z,16.93
2018-01-26T12:31:14.737Z,18.90
2018-01-26T12:33:43.137Z,17.10
2018-01-26T12:36:11.521Z,20.80
2018-01-26T12:38:40.041Z,19.80
2018-01-26T12:41:08.421Z,17.80
2018-01-26T12:43:36.792Z,17.30
2018-01-26T12:46:05.184Z,17.40
2018-01-26T12:48:33.558Z,16.80
2018-01-26T12:51:01.969Z,16.43
2018-01-26T12:53:30.342Z,17.17
2018-01-26T12:55:59.002Z,18.40
2018-01-26T12:58:27.373Z,18.33
2018-01-26T13:00:55.776Z,19.07
2018-01-26T13:03:24.185Z,19.40
2018-01-26T13:05:52.566Z,17.87
2018-01-26T13:08:20.965Z,19.03
2018-01-26T13:10:50.111Z,20.30
2018-01-26T13:13:18.683Z,21.17
2018-01-26T13:15:47.079Z,20.30
2018-01-26T13:18:15.452Z,19.97
2018-01-26T13:20:43.854Z,20.83
2018-01-26T13:23:12.321Z,17.67
2018-01-26T13:25:40.721Z,18.73
2018-01-26T13:28:09.093Z,18.43
2018-01-26T13:30:37.845Z,19.60
2018-01-26T13:33:06.221Z,18.80
2018-01-26T13:35:34.589Z,18.40
2018-01-26T13:38:02.986Z,16.40
2018-01-26T13:40:31.360Z,15.70
2018-01-26T13:42:59.768Z,16.33
2018-01-26T13:45:28.137Z,15.77
2018-01-26T13:47:56.573Z,15.87
2018-01-26T13:50:24.941Z,16.53
2018-01-26T13:52:53.351Z,16.30
2018-01-26T13:55:21.751Z,15.73
2018-01-26T13:57:50.169Z,15.20
2018-01-26T14:00:19.376Z,15.63
2018-01-26T14:02:48.504Z,15.63
2018-01-26T14:05:17.073Z,16.30
2018-01-26T14:07:45.444Z,17.53
2018-01-26T14:10:13.806Z,17.37
2018-01-26T14:12:42.204Z,16.83
2018-01-26T14:15:10.579Z,18.10
2018-01-26T14:17:38.978Z,17.53
2018-01-26T14:20:07.366Z,17.67
2018-01-26T14:22:35.789Z,19.08
2018-01-26T14:25:04.940Z,18.48
2018-01-26T14:27:33.317Z,18.60
2018-01-26T14:30:01.716Z,17.00
2018-01-26T14:32:30.121Z,17.90
2018-01-26T14:34:59.292Z,18.25
2018-01-26T14:37:27.729Z,19.00
2018-01-26T14:39:56.902Z,18.52
2018-01-26T14:42:26.042Z,18.67
2018-01-26T14:44:54.422Z,20.12
2018-01-26T14:47:22.831Z,22.35
2018-01-26T14:49:51.217Z,20.37
2018-01-26T14:52:19.614Z,19.65
2018-01-26T14:54:48.765Z,21.10
2018-01-26T14:57:17.326Z,19.73
2018-01-26T14:59:45.705Z,20.55
2018-01-26T15:02:14.086Z,21.08
2018-01-26T15:04:42.482Z,21.73
2018-01-26T15:07:11.152Z,22.75
2018-01-26T15:09:39.574Z,20.50
2018-01-26T15:12:07.982Z,23.15
2018-01-26T15:14:36.597Z,23.40
2018-01-26T15:17:05.014Z,22.02
2018-01-26T15:19:33.394Z,22.55
2018-01-26T15:22:01.796Z,22.73
2018-01-26T15:24:30.197Z,24.98
2018-01-26T15:27:04.980Z,24.30
2018-01-26T15:29:37.785Z,20.90
2018-01-26T15:32:08.578Z,19.37
2018-01-26T15:34:38.510Z,19.52
2018-01-26T15:37:09.471Z,20.90
2018-01-26T15:39:39.093Z,19.50
2018-01-26T15:42:08.894Z,19.37
2018-01-26T15:44:38.682Z,19.92
2018-01-26T15:47:08.524Z,20.12
2018-01-26T15:49:38.543Z,19.90
2018-01-26T15:52:08.485Z,21.77
2018-01-26T15:54:38.480Z,19.15
2018-01-26T15:57:08.419Z,22.85
2018-01-26T15:59:38.057Z,21.33
2018-01-26T16:02:08.005Z,21.92
2018-01-26T16:04:37.725Z,23.60
2018-01-26T16:07:08.155Z,20.30
2018-01-26T16:09:37.382Z,21.50
2018-01-26T16:12:06.646Z,22.42
2018-01-26T16:14:37.348Z,21.42
2018-01-26T16:17:05.730Z,22.55
2018-01-26T16:19:35.072Z,34.90
2018-01-26T16:22:03.425Z,24.90
2018-01-26T16:24:32.613Z,23.38
2018-01-26T16:27:01.807Z,23.45
2018-01-26T16:29:30.935Z,23.05
2018-01-26T16:31:59.345Z,26.62
2018-01-26T16:34:27.713Z,26.00
2018-01-26T16:36:56.423Z,30.58
2018-01-26T16:39:25.581Z,26.65
2018-01-26T16:41:53.953Z,27.30
2018-01-26T16:44:22.457Z,32.42
2018-01-26T16:46:50.844Z,35.55
2018-01-26T16:49:19.701Z,27.77
2018-01-26T16:51:48.145Z,28.65
2018-01-26T16:54:17.715Z,28.67
2018-01-26T16:56:46.507Z,28.45
2018-01-26T16:59:14.971Z,28.23
2018-01-26T17:01:43.407Z,29.10
2018-01-26T17:04:12.684Z,27.52
2018-01-26T17:06:42.096Z,28.65
2018-01-26T17:09:11.249Z,29.17
2018-01-26T17:11:40.552Z,28.23
2018-01-26T17:14:09.033Z,28.83
2018-01-26T17:16:37.639Z,30.70
2018-01-26T17:19:06.832Z,28.27
2018-01-26T17:21:35.294Z,28.60
2018-01-26T17:24:03.790Z,59.72
2018-01-26T17:26:32.357Z,32.97
2018-01-26T17:29:01.130Z,33.33
2018-01-26T17:31:29.832Z,32.55
2018-01-26T17:33:58.225Z,31.05
2018-01-26T17:36:26.641Z,30.40
2018-01-26T17:38:55.934Z,30.58
2018-01-26T17:41:26.836Z,29.83
2018-01-26T17:43:55.376Z,31.50
2018-01-26T17:46:23.900Z,32.00
2018-01-26T17:48:52.295Z,29.85
2018-01-26T17:51:20.922Z,31.48
2018-01-26T17:53:49.843Z,31.62
2018-01-26T17:56:18.397Z,30.80
2018-01-26T17:58:46.802Z,31.20
2018-01-26T18:01:15.466Z,33.20
2018-01-26T18:03:44.539Z,31.10
2018-01-26T18:06:12.981Z,32.30
2018-01-26T18:08:41.663Z,34.00
2018-01-26T18:11:10.315Z,33.70
2018-01-26T18:13:38.850Z,30.60
2018-01-26T18:16:08.274Z,58.03
2018-01-26T18:18:36.675Z,75.07
2018-01-26T18:21:05.336Z,36.88
2018-01-26T18:23:33.765Z,33.80
2018-01-26T18:26:02.537Z,39.30
2018-01-26T18:28:30.956Z,51.33
2018-01-26T18:30:59.361Z,71.97
2018-01-26T18:33:28.516Z,57.97
2018-01-26T18:35:56.946Z,55.88
2018-01-26T18:38:25.641Z,42.80
2018-01-26T18:40:54.154Z,31.90
2018-01-26T18:43:22.633Z,77.60
2018-01-26T18:45:51.283Z,51.85
2018-01-26T18:48:20.268Z,55.17
2018-01-26T18:50:48.681Z,62.58
2018-01-26T18:53:17.265Z,50.55
2018-01-26T18:55:45.957Z,56.30
2018-01-26T18:58:14.421Z,76.62
2018-01-26T19:00:42.909Z,91.37
2018-01-26T19:03:11.420Z,65.30
2018-01-26T19:05:39.785Z,49.13
2018-01-26T19:08:08.195Z,56.17
2018-01-26T19:10:36.725Z,50.85
2018-01-26T19:13:05.468Z,39.80
2018-01-26T19:15:34.889Z,39.53
2018-01-26T19:18:04.038Z,34.45
2018-01-26T19:20:32.595Z,27.92
2018-01-26T19:23:01.508Z,30.08
2018-01-26T19:25:30.654Z,28.65
2018-01-26T19:27:59.543Z,27.95
2018-01-26T19:30:28.583Z,27.65
2018-01-26T19:32:57.879Z,29.33
2018-01-26T19:35:26.564Z,30.52
2018-01-26T19:37:54.982Z,29.90
2018-01-26T19:40:24.654Z,27.08
2018-01-26T19:42:54.242Z,29.02
2018-01-26T19:45:23.870Z,30.95
2018-01-26T19:47:52.859Z,28.90
2018-01-26T19:50:21.625Z,33.53
2018-01-26T19:52:50.682Z,29.25
2018-01-26T19:55:20.197Z,29.48
2018-01-26T19:57:48.972Z,35.40
2018-01-26T20:00:19.417Z,42.67
2018-01-26T20:02:48.220Z,34.08
2018-01-26T20:05:40.348Z,31.08
2018-01-26T20:08:29.333Z,27.00
2018-01-26T20:10:58.035Z,26.60
2018-01-26T20:13:28.461Z,28.90
2018-01-26T20:16:01.017Z,27.15
2018-01-26T20:18:30.076Z,27.95
2018-01-26T20:20:59.194Z,28.55
2018-01-26T20:23:28.396Z,28.50
2018-01-26T20:25:58.404Z,30.40
2018-01-26T20:28:26.953Z,27.92
2018-01-26T20:30:56.412Z,30.55
2018-01-26T20:33:27.852Z,29.05
2018-01-26T20:35:56.841Z,27.90
2018-01-26T20:38:25.956Z,28.40
2018-01-26T20:40:54.857Z,26.98
2018-01-26T20:43:24.087Z,28.70
2018-01-26T20:45:53.465Z,27.35
2018-01-26T20:48:22.500Z,26.37
2018-01-26T20:50:52.326Z,27.55
2018-01-26T20:53:21.305Z,27.58
2018-01-26T20:55:51.140Z,28.05
2018-01-26T20:58:20.369Z,28.42
2018-01-26T21:00:50.787Z,26.80
2018-01-26T21:03:19.988Z,30.12
2018-01-26T21:05:50.490Z,31.87
2018-01-26T21:08:19.650Z,29.92
2018-01-26T21:10:49.542Z,27.65
2018-01-26T21:13:19.711Z,26.92
2018-01-26T21:15:49.021Z,28.27
2018-01-26T21:18:17.888Z,27.73
2018-01-26T21:20:46.673Z,31.37
2018-01-26T21:23:15.713Z,30.42
2018-01-26T21:25:44.570Z,30.75
2018-01-26T21:28:13.338Z,30.48
2018-01-26T21:30:43.072Z,37.53
2018-01-26T21:33:12.365Z,39.55
2018-01-26T21:35:41.572Z,32.90
2018-01-26T21:38:10.389Z,33.83
2018-01-26T21:40:40.121Z,31.98
2018-01-26T21:43:08.681Z,32.85
2018-01-26T21:45:38.376Z,29.90
2018-01-26T21:48:06.940Z,29.27
2018-01-26T21:50:35.811Z,27.62
2018-01-26T21:53:05.007Z,29.15
2018-01-26T21:55:34.489Z,28.35
2018-01-26T21:58:02.943Z,29.35
2018-01-26T22:00:31.481Z,30.37
2018-01-26T22:03:01.614Z,30.25
2018-01-26T22:05:29.981Z,27.40
2018-01-26T22:07:58.417Z,27.90
2018-01-26T22:10:26.790Z,27.50
2018-01-26T22:12:55.200Z,29.23
2018-01-26T22:15:23.620Z,28.38
2018-01-26T22:17:52.041Z,26.98
2018-01-26T22:20:21.154Z,40.03
2018-01-26T22:22:49.917Z,63.35
2018-01-26T22:25:19.601Z,51.42
2018-01-26T22:27:49.554Z,29.25
2018-01-26T22:30:18.182Z,26.35
2018-01-26T22:32:51.506Z,26.87
2018-01-26T22:35:20.608Z,25.00
2018-01-26T22:37:49.010Z,28.60
2018-01-26T22:40:17.391Z,24.08
2018-01-26T22:42:45.825Z,27.60
2018-01-26T22:45:14.184Z,27.95
2018-01-26T22:47:42.566Z,28.30
2018-01-26T22:50:10.929Z,32.25
2018-01-26T22:52:40.192Z,29.63
2018-01-26T22:55:09.377Z,29.65
2018-01-26T22:57:37.909Z,28.73
2018-01-26T23:00:07.711Z,23.85
2018-01-26T23:02:37.626Z,30.02
2018-01-26T23:05:06.037Z,28.58
2018-01-26T23:07:34.960Z,26.70
2018-01-26T23:10:04.111Z,28.30
2018-01-26T23:12:32.482Z,26.12
2018-01-26T23:15:01.629Z,23.73
2018-01-26T23:17:30.045Z,24.95
2018-01-26T23:19:59.183Z,25.42
2018-01-26T23:22:27.570Z,26.50
2018-01-26T23:24:55.942Z,25.73
2018-01-26T23:27:24.741Z,27.77
2018-01-26T23:29:53.165Z,25.10
2018-01-26T23:32:22.489Z,25.92
2018-01-26T23:34:50.957Z,25.30
2018-01-26T23:37:20.142Z,25.85
2018-01-26T23:39:49.395Z,26.60
2018-01-26T23:42:17.775Z,27.27
2018-01-26T23:44:46.461Z,25.65
2018-01-26T23:47:14.914Z,27.40
2018-01-26T23:49:43.284Z,25.83
2018-01-26T23:52:11.669Z,26.42
2018-01-26T23:54:40.047Z,29.17
2018-01-26T23:57:08.458Z,28.17
2018-01-26T23:59:36.821Z,28.33
